sensor_id;sensor_type;location;lat;lon;timestamp;P1;durP1;ratioP1;P2;durP2;ratioP2
38609;SDS011;24367;51.640;9.566;2022-08-19T00:01:13;8.50;;;7.80;;
38609;SDS011;24367;51.640;9.566;2022-08-19T00:03:40;9.35;;;7.88;;
38609;SDS011;24367;51.640;9.566;2022-08-19T00:06:06;8.90;;;8.10;;
38609;SDS011;24367;51.640;9.566;2022-08-19T00:08:34;8.90;;;8.10;;
38609;SDS011;24367;51.640;9.566;2022-08-19T00:11:01;9.25;;;8.55;;
38609;SDS011;24367;51.640;9.566;2022-08-19T00:13:28;8.73;;;7.95;;
38609;SDS011;24367;51.640;9.566;2022-08-19T00:15:54;8.95;;;8.18;;
38609;SDS011;24367;51.640;9.566;2022-08-19T00:18:20;9.15;;;8.25;;
38609;SDS011;24367;51.640;9.566;2022-08-19T00:20:47;9.15;;;8.35;;
38609;SDS011;24367;51.640;9.566;2022-08-19T00:23:13;8.65;;;7.85;;
38609;SDS011;24367;51.640;9.566;2022-08-19T00:25:41;9.73;;;8.68;;
38609;SDS011;24367;51.640;9.566;2022-08-19T00:28:07;8.95;;;8.05;;
38609;SDS011;24367;51.640;9.566;2022-08-19T00:30:34;8.68;;;7.93;;
38609;SDS011;24367;51.640;9.566;2022-08-19T00:33:00;8.75;;;7.95;;
38609;SDS011;24367;51.640;9.566;2022-08-19T00:35:27;8.45;;;7.65;;
38609;SDS011;24367;51.640;9.566;2022-08-19T00:37:53;8.95;;;8.05;;
38609;SDS011;24367;51.640;9.566;2022-08-19T00:40:20;9.32;;;8.43;;
38609;SDS011;24367;51.640;9.566;2022-08-19T00:42:48;8.90;;;8.10;;
38609;SDS011;24367;51.640;9.566;2022-08-19T00:45:20;8.60;;;7.70;;
38609;SDS011;24367;51.640;9.566;2022-08-19T00:47:48;8.70;;;7.85;;
38609;SDS011;24367;51.640;9.566;2022-08-19T00:50:15;8.10;;;7.30;;
38609;SDS011;24367;51.640;9.566;2022-08-19T00:52:45;9.02;;;7.97;;
38609;SDS011;24367;51.640;9.566;2022-08-19T00:55:14;8.25;;;7.40;;
38609;SDS011;24367;51.640;9.566;2022-08-19T00:57:44;7.97;;;7.18;;
38609;SDS011;24367;51.640;9.566;2022-08-19T01:00:16;7.93;;;7.20;;
38609;SDS011;24367;51.640;9.566;2022-08-19T01:02:44;8.65;;;7.65;;
38609;SDS011;24367;51.640;9.566;2022-08-19T01:05:11;8.20;;;7.40;;
38609;SDS011;24367;51.640;9.566;2022-08-19T01:07:40;8.13;;;7.43;;
38609;SDS011;24367;51.640;9.566;2022-08-19T01:10:09;7.75;;;7.05;;
38609;SDS011;24367;51.640;9.566;2022-08-19T01:12:37;8.05;;;7.30;;
38609;SDS011;24367;51.640;9.566;2022-08-19T01:15:05;7.97;;;7.20;;
38609;SDS011;24367;51.640;9.566;2022-08-19T01:17:34;8.15;;;7.15;;
38609;SDS011;24367;51.640;9.566;2022-08-19T01:20:02;7.90;;;7.13;;
38609;SDS011;24367;51.640;9.566;2022-08-19T01:22:31;6.85;;;6.20;;
38609;SDS011;24367;51.640;9.566;2022-08-19T01:25:01;7.03;;;6.32;;
38609;SDS011;24367;51.640;9.566;2022-08-19T01:27:29;7.15;;;6.50;;
38609;SDS011;24367;51.640;9.566;2022-08-19T01:30:04;7.75;;;6.95;;
38609;SDS011;24367;51.640;9.566;2022-08-19T01:32:32;7.05;;;6.40;;
38609;SDS011;24367;51.640;9.566;2022-08-19T01:34:58;7.05;;;6.35;;
38609;SDS011;24367;51.640;9.566;2022-08-19T01:37:26;7.22;;;6.53;;
38609;SDS011;24367;51.640;9.566;2022-08-19T01:39:54;6.90;;;6.20;;
38609;SDS011;24367;51.640;9.566;2022-08-19T01:42:20;6.85;;;6.25;;
38609;SDS011;24367;51.640;9.566;2022-08-19T01:44:47;7.57;;;6.75;;
38609;SDS011;24367;51.640;9.566;2022-08-19T01:47:13;6.93;;;6.22;;
38609;SDS011;24367;51.640;9.566;2022-08-19T01:49:41;6.65;;;5.95;;
38609;SDS011;24367;51.640;9.566;2022-08-19T01:52:07;7.43;;;6.32;;
38609;SDS011;24367;51.640;9.566;2022-08-19T01:54:34;7.35;;;6.65;;
38609;SDS011;24367;51.640;9.566;2022-08-19T01:57:04;7.18;;;5.97;;
38609;SDS011;24367;51.640;9.566;2022-08-19T01:59:31;6.93;;;6.32;;
38609;SDS011;24367;51.640;9.566;2022-08-19T02:02:01;6.45;;;5.85;;
38609;SDS011;24367;51.640;9.566;2022-08-19T02:04:28;6.78;;;6.18;;
38609;SDS011;24367;51.640;9.566;2022-08-19T02:06:54;7.20;;;6.50;;
38609;SDS011;24367;51.640;9.566;2022-08-19T02:09:21;7.03;;;6.25;;
38609;SDS011;24367;51.640;9.566;2022-08-19T02:11:47;7.10;;;6.45;;
38609;SDS011;24367;51.640;9.566;2022-08-19T02:14:15;6.88;;;6.18;;
38609;SDS011;24367;51.640;9.566;2022-08-19T02:16:41;6.53;;;5.88;;
38609;SDS011;24367;51.640;9.566;2022-08-19T02:19:07;6.70;;;6.00;;
38609;SDS011;24367;51.640;9.566;2022-08-19T02:21:35;6.35;;;5.80;;
38609;SDS011;24367;51.640;9.566;2022-08-19T02:24:02;6.18;;;5.47;;
38609;SDS011;24367;51.640;9.566;2022-08-19T02:26:29;6.57;;;5.90;;
38609;SDS011;24367;51.640;9.566;2022-08-19T02:28:55;6.60;;;6.00;;
38609;SDS011;24367;51.640;9.566;2022-08-19T02:31:24;7.15;;;6.43;;
38609;SDS011;24367;51.640;9.566;2022-08-19T02:33:51;6.68;;;5.97;;
38609;SDS011;24367;51.640;9.566;2022-08-19T02:36:18;7.88;;;5.68;;
38609;SDS011;24367;51.640;9.566;2022-08-19T02:38:45;6.57;;;5.90;;
38609;SDS011;24367;51.640;9.566;2022-08-19T02:41:14;6.82;;;6.13;;
38609;SDS011;24367;51.640;9.566;2022-08-19T02:43:42;6.35;;;5.70;;
38609;SDS011;24367;51.640;9.566;2022-08-19T02:46:12;7.40;;;5.70;;
38609;SDS011;24367;51.640;9.566;2022-08-19T02:48:42;6.55;;;5.80;;
38609;SDS011;24367;51.640;9.566;2022-08-19T02:51:08;5.50;;;5.00;;
38609;SDS011;24367;51.640;9.566;2022-08-19T02:53:35;6.10;;;5.50;;
38609;SDS011;24367;51.640;9.566;2022-08-19T02:56:05;7.13;;;5.38;;
38609;SDS011;24367;51.640;9.566;2022-08-19T02:58:32;6.50;;;5.50;;
38609;SDS011;24367;51.640;9.566;2022-08-19T03:00:58;5.68;;;5.05;;
38609;SDS011;24367;51.640;9.566;2022-08-19T03:03:25;7.13;;;5.20;;
38609;SDS011;24367;51.640;9.566;2022-08-19T03:06:01;6.03;;;5.43;;
38609;SDS011;24367;51.640;9.566;2022-08-19T03:08:29;5.93;;;5.18;;
38609;SDS011;24367;51.640;9.566;2022-08-19T03:10:55;5.32;;;4.82;;
38609;SDS011;24367;51.640;9.566;2022-08-19T03:13:22;7.20;;;5.10;;
38609;SDS011;24367;51.640;9.566;2022-08-19T03:15:49;5.63;;;5.05;;
38609;SDS011;24367;51.640;9.566;2022-08-19T03:18:16;5.40;;;4.68;;
38609;SDS011;24367;51.640;9.566;2022-08-19T03:20:42;7.32;;;4.90;;
38609;SDS011;24367;51.640;9.566;2022-08-19T03:23:10;5.43;;;4.57;;
38609;SDS011;24367;51.640;9.566;2022-08-19T03:25:39;4.88;;;4.38;;
38609;SDS011;24367;51.640;9.566;2022-08-19T03:28:08;5.05;;;4.43;;
38609;SDS011;24367;51.640;9.566;2022-08-19T03:30:35;4.72;;;4.10;;
38609;SDS011;24367;51.640;9.566;2022-08-19T03:33:01;5.35;;;4.57;;
38609;SDS011;24367;51.640;9.566;2022-08-19T03:35:27;5.15;;;4.28;;
38609;SDS011;24367;51.640;9.566;2022-08-19T03:37:54;8.73;;;4.25;;
38609;SDS011;24367;51.640;9.566;2022-08-19T03:40:22;5.50;;;4.40;;
38609;SDS011;24367;51.640;9.566;2022-08-19T03:42:49;5.03;;;4.10;;
38609;SDS011;24367;51.640;9.566;2022-08-19T03:45:15;5.70;;;3.95;;
38609;SDS011;24367;51.640;9.566;2022-08-19T03:47:42;5.28;;;3.90;;
38609;SDS011;24367;51.640;9.566;2022-08-19T03:50:08;4.90;;;3.85;;
38609;SDS011;24367;51.640;9.566;2022-08-19T03:52:35;5.25;;;3.65;;
38609;SDS011;24367;51.640;9.566;2022-08-19T03:55:02;5.47;;;3.88;;
38609;SDS011;24367;51.640;9.566;2022-08-19T03:57:31;4.82;;;4.25;;
38609;SDS011;24367;51.640;9.566;2022-08-19T03:59:57;4.85;;;3.83;;
38609;SDS011;24367;51.640;9.566;2022-08-19T04:02:24;5.57;;;3.80;;
38609;SDS011;24367;51.640;9.566;2022-08-19T04:04:52;4.85;;;3.55;;
38609;SDS011;24367;51.640;9.566;2022-08-19T04:07:19;4.10;;;3.70;;
38609;SDS011;24367;51.640;9.566;2022-08-19T04:09:46;4.40;;;3.70;;
38609;SDS011;24367;51.640;9.566;2022-08-19T04:12:12;4.20;;;3.58;;
38609;SDS011;24367;51.640;9.566;2022-08-19T04:14:41;5.07;;;3.20;;
38609;SDS011;24367;51.640;9.566;2022-08-19T04:17:07;4.82;;;3.30;;
38609;SDS011;24367;51.640;9.566;2022-08-19T04:19:34;5.22;;;3.70;;
38609;SDS011;24367;51.640;9.566;2022-08-19T04:22:01;3.65;;;3.05;;
38609;SDS011;24367;51.640;9.566;2022-08-19T04:24:28;4.95;;;3.10;;
38609;SDS011;24367;51.640;9.566;2022-08-19T04:26:55;3.83;;;3.00;;
38609;SDS011;24367;51.640;9.566;2022-08-19T04:29:22;3.00;;;2.70;;
38609;SDS011;24367;51.640;9.566;2022-08-19T04:31:53;4.38;;;3.13;;
38609;SDS011;24367;51.640;9.566;2022-08-19T04:34:21;6.07;;;3.28;;
38609;SDS011;24367;51.640;9.566;2022-08-19T04:36:49;4.97;;;2.95;;
38609;SDS011;24367;51.640;9.566;2022-08-19T04:39:17;4.38;;;3.05;;
38609;SDS011;24367;51.640;9.566;2022-08-19T04:41:45;4.60;;;2.80;;
38609;SDS011;24367;51.640;9.566;2022-08-19T04:46:57;5.25;;;4.20;;
38609;SDS011;24367;51.640;9.566;2022-08-19T04:49:24;6.10;;;4.55;;
38609;SDS011;24367;51.640;9.566;2022-08-19T04:51:52;5.82;;;4.75;;
38609;SDS011;24367;51.640;9.566;2022-08-19T04:54:20;5.22;;;4.35;;
38609;SDS011;24367;51.640;9.566;2022-08-19T04:56:48;5.22;;;4.35;;
38609;SDS011;24367;51.640;9.566;2022-08-19T04:59:15;4.95;;;4.40;;
38609;SDS011;24367;51.640;9.566;2022-08-19T05:01:43;5.57;;;4.13;;
38609;SDS011;24367;51.640;9.566;2022-08-19T05:04:15;5.35;;;4.53;;
38609;SDS011;24367;51.640;9.566;2022-08-19T05:06:43;5.55;;;3.88;;
38609;SDS011;24367;51.640;9.566;2022-08-19T05:09:10;5.45;;;4.05;;
38609;SDS011;24367;51.640;9.566;2022-08-19T05:11:36;5.28;;;4.10;;
38609;SDS011;24367;51.640;9.566;2022-08-19T05:14:04;5.45;;;3.85;;
38609;SDS011;24367;51.640;9.566;2022-08-19T05:16:32;9.70;;;4.13;;
38609;SDS011;24367;51.640;9.566;2022-08-19T05:18:58;4.82;;;3.63;;
38609;SDS011;24367;51.640;9.566;2022-08-19T05:21:43;6.47;;;3.42;;
38609;SDS011;24367;51.640;9.566;2022-08-19T05:24:27;3.72;;;2.90;;
38609;SDS011;24367;51.640;9.566;2022-08-19T05:26:54;5.97;;;3.33;;
38609;SDS011;24367;51.640;9.566;2022-08-19T05:29:23;8.15;;;4.07;;
38609;SDS011;24367;51.640;9.566;2022-08-19T05:31:52;6.30;;;4.03;;
38609;SDS011;24367;51.640;9.566;2022-08-19T05:34:20;11.73;;;3.85;;
38609;SDS011;24367;51.640;9.566;2022-08-19T05:36:49;8.90;;;3.42;;
38609;SDS011;24367;51.640;9.566;2022-08-19T05:39:20;6.13;;;3.72;;
38609;SDS011;24367;51.640;9.566;2022-08-19T05:41:47;7.60;;;4.05;;
38609;SDS011;24367;51.640;9.566;2022-08-19T05:44:15;7.13;;;3.38;;
38609;SDS011;24367;51.640;9.566;2022-08-19T05:46:42;6.18;;;3.63;;
38609;SDS011;24367;51.640;9.566;2022-08-19T05:49:12;6.43;;;3.53;;
38609;SDS011;24367;51.640;9.566;2022-08-19T05:51:39;8.38;;;4.32;;
38609;SDS011;24367;51.640;9.566;2022-08-19T05:54:08;7.53;;;4.55;;
38609;SDS011;24367;51.640;9.566;2022-08-19T05:56:36;8.60;;;3.55;;
38609;SDS011;24367;51.640;9.566;2022-08-19T05:59:03;6.90;;;4.18;;
38609;SDS011;24367;51.640;9.566;2022-08-19T06:01:34;6.85;;;3.83;;
38609;SDS011;24367;51.640;9.566;2022-08-19T06:04:01;8.10;;;3.78;;
38609;SDS011;24367;51.640;9.566;2022-08-19T06:06:28;6.05;;;3.97;;
38609;SDS011;24367;51.640;9.566;2022-08-19T06:08:55;10.32;;;4.20;;
38609;SDS011;24367;51.640;9.566;2022-08-19T06:11:23;7.65;;;3.83;;
38609;SDS011;24367;51.640;9.566;2022-08-19T06:13:59;10.18;;;3.90;;
38609;SDS011;24367;51.640;9.566;2022-08-19T06:16:27;7.55;;;3.80;;
38609;SDS011;24367;51.640;9.566;2022-08-19T06:18:56;9.93;;;3.40;;
38609;SDS011;24367;51.640;9.566;2022-08-19T06:21:26;8.93;;;3.33;;
38609;SDS011;24367;51.640;9.566;2022-08-19T06:23:54;10.68;;;3.25;;
38609;SDS011;24367;51.640;9.566;2022-08-19T06:26:22;9.13;;;3.17;;
38609;SDS011;24367;51.640;9.566;2022-08-19T06:28:50;8.82;;;2.92;;
38609;SDS011;24367;51.640;9.566;2022-08-19T06:31:18;5.63;;;3.25;;
38609;SDS011;24367;51.640;9.566;2022-08-19T06:33:46;6.65;;;3.30;;
38609;SDS011;24367;51.640;9.566;2022-08-19T06:36:20;6.25;;;3.40;;
38609;SDS011;24367;51.640;9.566;2022-08-19T06:38:52;5.10;;;2.90;;
38609;SDS011;24367;51.640;9.566;2022-08-19T06:41:18;5.13;;;3.00;;
38609;SDS011;24367;51.640;9.566;2022-08-19T06:43:46;6.45;;;3.08;;
38609;SDS011;24367;51.640;9.566;2022-08-19T06:46:14;5.30;;;2.90;;
38609;SDS011;24367;51.640;9.566;2022-08-19T06:48:42;4.43;;;2.42;;
38609;SDS011;24367;51.640;9.566;2022-08-19T06:51:09;4.55;;;2.35;;
38609;SDS011;24367;51.640;9.566;2022-08-19T06:53:35;3.85;;;2.83;;
38609;SDS011;24367;51.640;9.566;2022-08-19T06:56:02;5.00;;;2.90;;
38609;SDS011;24367;51.640;9.566;2022-08-19T06:58:28;5.82;;;2.20;;
38609;SDS011;24367;51.640;9.566;2022-08-19T07:01:00;4.30;;;2.08;;
38609;SDS011;24367;51.640;9.566;2022-08-19T07:03:29;3.83;;;2.25;;
38609;SDS011;24367;51.640;9.566;2022-08-19T07:05:57;5.05;;;2.45;;
38609;SDS011;24367;51.640;9.566;2022-08-19T07:08:24;4.55;;;2.47;;
38609;SDS011;24367;51.640;9.566;2022-08-19T07:10:52;3.47;;;2.20;;
38609;SDS011;24367;51.640;9.566;2022-08-19T07:13:18;5.07;;;2.53;;
38609;SDS011;24367;51.640;9.566;2022-08-19T07:15:46;6.38;;;2.38;;
38609;SDS011;24367;51.640;9.566;2022-08-19T07:18:15;4.40;;;2.30;;
38609;SDS011;24367;51.640;9.566;2022-08-19T07:20:43;3.45;;;1.90;;
38609;SDS011;24367;51.640;9.566;2022-08-19T07:23:09;4.68;;;2.30;;
38609;SDS011;24367;51.640;9.566;2022-08-19T07:25:36;3.63;;;2.20;;
38609;SDS011;24367;51.640;9.566;2022-08-19T07:28:03;4.72;;;2.63;;
38609;SDS011;24367;51.640;9.566;2022-08-19T07:30:29;4.75;;;2.53;;
38609;SDS011;24367;51.640;9.566;2022-08-19T07:32:56;3.70;;;2.25;;
38609;SDS011;24367;51.640;9.566;2022-08-19T07:35:24;4.75;;;2.60;;
38609;SDS011;24367;51.640;9.566;2022-08-19T07:37:50;4.43;;;2.58;;
38609;SDS011;24367;51.640;9.566;2022-08-19T07:40:17;5.30;;;2.10;;
38609;SDS011;24367;51.640;9.566;2022-08-19T07:42:44;5.22;;;2.28;;
38609;SDS011;24367;51.640;9.566;2022-08-19T07:45:11;4.30;;;2.72;;
38609;SDS011;24367;51.640;9.566;2022-08-19T07:47:37;3.90;;;2.50;;
38609;SDS011;24367;51.640;9.566;2022-08-19T07:50:05;4.32;;;2.35;;
38609;SDS011;24367;51.640;9.566;2022-08-19T07:52:33;3.45;;;2.15;;
38609;SDS011;24367;51.640;9.566;2022-08-19T07:55:02;2.85;;;2.08;;
38609;SDS011;24367;51.640;9.566;2022-08-19T07:57:29;3.35;;;2.20;;
38609;SDS011;24367;51.640;9.566;2022-08-19T07:59:56;3.60;;;2.45;;
38609;SDS011;24367;51.640;9.566;2022-08-19T08:02:22;3.53;;;2.10;;
38609;SDS011;24367;51.640;9.566;2022-08-19T08:04:48;3.63;;;2.60;;
38609;SDS011;24367;51.640;9.566;2022-08-19T08:07:33;3.38;;;2.20;;
38609;SDS011;24367;51.640;9.566;2022-08-19T08:10:18;3.53;;;2.15;;
38609;SDS011;24367;51.640;9.566;2022-08-19T08:12:44;3.38;;;2.00;;
38609;SDS011;24367;51.640;9.566;2022-08-19T08:15:12;3.55;;;2.03;;
38609;SDS011;24367;51.640;9.566;2022-08-19T08:17:41;4.35;;;2.53;;
38609;SDS011;24367;51.640;9.566;2022-08-19T08:20:08;3.40;;;2.10;;
38609;SDS011;24367;51.640;9.566;2022-08-19T08:22:37;4.20;;;2.10;;
38609;SDS011;24367;51.640;9.566;2022-08-19T08:25:21;3.97;;;2.00;;
38609;SDS011;24367;51.640;9.566;2022-08-19T08:27:49;4.07;;;2.33;;
38609;SDS011;24367;51.640;9.566;2022-08-19T08:30:19;3.35;;;2.15;;
38609;SDS011;24367;51.640;9.566;2022-08-19T08:32:46;4.28;;;2.42;;
38609;SDS011;24367;51.640;9.566;2022-08-19T08:35:15;3.13;;;1.90;;
38609;SDS011;24367;51.640;9.566;2022-08-19T08:37:44;3.42;;;1.95;;
38609;SDS011;24367;51.640;9.566;2022-08-19T08:40:14;2.88;;;2.00;;
38609;SDS011;24367;51.640;9.566;2022-08-19T08:42:43;3.45;;;2.15;;
38609;SDS011;24367;51.640;9.566;2022-08-19T08:45:15;3.03;;;1.80;;
38609;SDS011;24367;51.640;9.566;2022-08-19T08:47:44;2.70;;;1.73;;
38609;SDS011;24367;51.640;9.566;2022-08-19T08:50:15;3.15;;;2.00;;
38609;SDS011;24367;51.640;9.566;2022-08-19T08:52:47;4.15;;;1.80;;
38609;SDS011;24367;51.640;9.566;2022-08-19T08:55:17;2.42;;;1.77;;
38609;SDS011;24367;51.640;9.566;2022-08-19T08:57:49;3.67;;;1.83;;
38609;SDS011;24367;51.640;9.566;2022-08-19T09:00:19;2.75;;;1.90;;
38609;SDS011;24367;51.640;9.566;2022-08-19T09:02:47;2.92;;;1.83;;
38609;SDS011;24367;51.640;9.566;2022-08-19T09:05:14;2.75;;;1.80;;
38609;SDS011;24367;51.640;9.566;2022-08-19T09:07:42;3.72;;;1.70;;
38609;SDS011;24367;51.640;9.566;2022-08-19T09:10:15;2.58;;;1.80;;
38609;SDS011;24367;51.640;9.566;2022-08-19T09:12:48;5.63;;;2.13;;
38609;SDS011;24367;51.640;9.566;2022-08-19T09:15:22;3.30;;;1.98;;
38609;SDS011;24367;51.640;9.566;2022-08-19T09:17:52;2.83;;;2.05;;
38609;SDS011;24367;51.640;9.566;2022-08-19T09:20:19;3.33;;;1.90;;
38609;SDS011;24367;51.640;9.566;2022-08-19T09:22:49;3.22;;;2.05;;
38609;SDS011;24367;51.640;9.566;2022-08-19T09:25:16;3.08;;;1.73;;
38609;SDS011;24367;51.640;9.566;2022-08-19T09:27:45;2.60;;;1.90;;
38609;SDS011;24367;51.640;9.566;2022-08-19T09:30:13;2.78;;;1.80;;
38609;SDS011;24367;51.640;9.566;2022-08-19T09:32:43;3.40;;;1.80;;
38609;SDS011;24367;51.640;9.566;2022-08-19T09:35:10;5.57;;;1.95;;
38609;SDS011;24367;51.640;9.566;2022-08-19T09:37:38;32.58;;;3.33;;
38609;SDS011;24367;51.640;9.566;2022-08-19T09:40:06;16.52;;;3.10;;
38609;SDS011;24367;51.640;9.566;2022-08-19T09:42:33;11.55;;;2.97;;
38609;SDS011;24367;51.640;9.566;2022-08-19T09:44:59;9.45;;;2.35;;
38609;SDS011;24367;51.640;9.566;2022-08-19T09:47:26;9.07;;;2.58;;
38609;SDS011;24367;51.640;9.566;2022-08-19T09:49:52;8.48;;;3.08;;
38609;SDS011;24367;51.640;9.566;2022-08-19T09:52:19;12.57;;;2.67;;
38609;SDS011;24367;51.640;9.566;2022-08-19T09:54:46;14.23;;;2.90;;
38609;SDS011;24367;51.640;9.566;2022-08-19T09:57:14;10.27;;;2.40;;
38609;SDS011;24367;51.640;9.566;2022-08-19T09:59:40;9.27;;;2.45;;
38609;SDS011;24367;51.640;9.566;2022-08-19T10:02:07;5.68;;;1.90;;
38609;SDS011;24367;51.640;9.566;2022-08-19T10:04:34;6.65;;;2.10;;
38609;SDS011;24367;51.640;9.566;2022-08-19T10:07:18;10.10;;;2.83;;
38609;SDS011;24367;51.640;9.566;2022-08-19T10:09:45;9.68;;;2.53;;
38609;SDS011;24367;51.640;9.566;2022-08-19T10:12:11;10.57;;;2.20;;
38609;SDS011;24367;51.640;9.566;2022-08-19T10:14:40;9.05;;;2.28;;
38609;SDS011;24367;51.640;9.566;2022-08-19T10:17:07;5.25;;;2.15;;
38609;SDS011;24367;51.640;9.566;2022-08-19T10:19:34;9.93;;;2.28;;
38609;SDS011;24367;51.640;9.566;2022-08-19T10:22:02;7.88;;;2.60;;
38609;SDS011;24367;51.640;9.566;2022-08-19T10:24:29;10.55;;;2.55;;
38609;SDS011;24367;51.640;9.566;2022-08-19T10:26:56;3.65;;;2.40;;
38609;SDS011;24367;51.640;9.566;2022-08-19T10:29:24;4.70;;;1.92;;
38609;SDS011;24367;51.640;9.566;2022-08-19T10:31:52;5.13;;;2.10;;
38609;SDS011;24367;51.640;9.566;2022-08-19T10:34:19;5.30;;;2.05;;
38609;SDS011;24367;51.640;9.566;2022-08-19T10:36:45;8.43;;;2.10;;
38609;SDS011;24367;51.640;9.566;2022-08-19T10:39:12;4.93;;;2.00;;
38609;SDS011;24367;51.640;9.566;2022-08-19T10:41:39;3.95;;;1.83;;
38609;SDS011;24367;51.640;9.566;2022-08-19T10:44:08;5.43;;;2.35;;
38609;SDS011;24367;51.640;9.566;2022-08-19T10:46:39;4.28;;;2.10;;
38609;SDS011;24367;51.640;9.566;2022-08-19T10:49:08;4.05;;;1.98;;
38609;SDS011;24367;51.640;9.566;2022-08-19T10:51:36;5.63;;;2.08;;
38609;SDS011;24367;51.640;9.566;2022-08-19T10:54:33;3.33;;;2.10;;
38609;SDS011;24367;51.640;9.566;2022-08-19T10:57:17;5.70;;;2.00;;
38609;SDS011;24367;51.640;9.566;2022-08-19T10:59:43;50.97;;;4.00;;
38609;SDS011;24367;51.640;9.566;2022-08-19T11:02:11;10.80;;;2.15;;
38609;SDS011;24367;51.640;9.566;2022-08-19T11:04:38;12.52;;;2.58;;
38609;SDS011;24367;51.640;9.566;2022-08-19T11:07:06;10.25;;;2.28;;
38609;SDS011;24367;51.640;9.566;2022-08-19T11:09:36;4.97;;;1.92;;
38609;SDS011;24367;51.640;9.566;2022-08-19T11:12:04;16.92;;;2.88;;
38609;SDS011;24367;51.640;9.566;2022-08-19T11:14:31;8.55;;;2.30;;
38609;SDS011;24367;51.640;9.566;2022-08-19T11:17:01;9.27;;;2.08;;
38609;SDS011;24367;51.640;9.566;2022-08-19T11:19:30;8.57;;;2.53;;
38609;SDS011;24367;51.640;9.566;2022-08-19T11:21:56;8.77;;;2.33;;
38609;SDS011;24367;51.640;9.566;2022-08-19T11:24:27;5.30;;;1.80;;
38609;SDS011;24367;51.640;9.566;2022-08-19T11:26:55;4.15;;;2.08;;
38609;SDS011;24367;51.640;9.566;2022-08-19T11:29:29;6.82;;;2.13;;
38609;SDS011;24367;51.640;9.566;2022-08-19T11:31:56;4.03;;;2.03;;
38609;SDS011;24367;51.640;9.566;2022-08-19T11:34:23;6.97;;;2.28;;
38609;SDS011;24367;51.640;9.566;2022-08-19T11:36:54;5.72;;;2.30;;
38609;SDS011;24367;51.640;9.566;2022-08-19T11:39:23;5.70;;;2.00;;
38609;SDS011;24367;51.640;9.566;2022-08-19T11:41:50;5.28;;;2.10;;
38609;SDS011;24367;51.640;9.566;2022-08-19T11:44:17;17.33;;;2.75;;
38609;SDS011;24367;51.640;9.566;2022-08-19T11:46:44;9.80;;;2.50;;
38609;SDS011;24367;51.640;9.566;2022-08-19T11:49:11;5.80;;;2.47;;
38609;SDS011;24367;51.640;9.566;2022-08-19T11:51:42;5.30;;;2.17;;
38609;SDS011;24367;51.640;9.566;2022-08-19T11:54:10;5.07;;;2.15;;
38609;SDS011;24367;51.640;9.566;2022-08-19T11:56:38;25.35;;;2.95;;
38609;SDS011;24367;51.640;9.566;2022-08-19T11:59:04;4.25;;;1.90;;
38609;SDS011;24367;51.640;9.566;2022-08-19T12:01:32;3.83;;;2.13;;
38609;SDS011;24367;51.640;9.566;2022-08-19T12:03:59;3.80;;;2.03;;
38609;SDS011;24367;51.640;9.566;2022-08-19T12:06:27;5.05;;;1.92;;
38609;SDS011;24367;51.640;9.566;2022-08-19T12:08:59;4.85;;;2.00;;
38609;SDS011;24367;51.640;9.566;2022-08-19T12:11:29;5.20;;;2.38;;
38609;SDS011;24367;51.640;9.566;2022-08-19T12:13:55;5.32;;;2.05;;
38609;SDS011;24367;51.640;9.566;2022-08-19T12:16:23;7.32;;;2.58;;
38609;SDS011;24367;51.640;9.566;2022-08-19T12:18:50;3.55;;;1.85;;
38609;SDS011;24367;51.640;9.566;2022-08-19T12:21:18;6.57;;;2.35;;
38609;SDS011;24367;51.640;9.566;2022-08-19T12:23:47;4.05;;;2.10;;
38609;SDS011;24367;51.640;9.566;2022-08-19T12:26:15;8.27;;;2.10;;
38609;SDS011;24367;51.640;9.566;2022-08-19T12:28:43;6.50;;;2.08;;
38609;SDS011;24367;51.640;9.566;2022-08-19T12:31:10;3.25;;;1.92;;
38609;SDS011;24367;51.640;9.566;2022-08-19T12:33:37;3.13;;;1.98;;
38609;SDS011;24367;51.640;9.566;2022-08-19T12:36:04;3.75;;;2.00;;
38609;SDS011;24367;51.640;9.566;2022-08-19T12:38:32;3.60;;;2.00;;
38609;SDS011;24367;51.640;9.566;2022-08-19T12:40:59;4.00;;;1.80;;
38609;SDS011;24367;51.640;9.566;2022-08-19T12:43:28;4.65;;;2.10;;
38609;SDS011;24367;51.640;9.566;2022-08-19T12:45:56;7.22;;;1.90;;
38609;SDS011;24367;51.640;9.566;2022-08-19T12:48:23;3.90;;;1.95;;
38609;SDS011;24367;51.640;9.566;2022-08-19T12:50:49;4.72;;;2.20;;
38609;SDS011;24367;51.640;9.566;2022-08-19T12:53:15;3.67;;;2.20;;
38609;SDS011;24367;51.640;9.566;2022-08-19T12:55:42;2.53;;;1.80;;
38609;SDS011;24367;51.640;9.566;2022-08-19T12:58:09;3.90;;;1.88;;
38609;SDS011;24367;51.640;9.566;2022-08-19T13:00:37;5.60;;;2.53;;
38609;SDS011;24367;51.640;9.566;2022-08-19T13:03:05;5.63;;;2.53;;
38609;SDS011;24367;51.640;9.566;2022-08-19T13:05:32;3.55;;;1.80;;
38609;SDS011;24367;51.640;9.566;2022-08-19T13:07:59;4.78;;;2.25;;
38609;SDS011;24367;51.640;9.566;2022-08-19T13:10:27;4.63;;;2.08;;
38609;SDS011;24367;51.640;9.566;2022-08-19T13:12:55;3.45;;;2.08;;
38609;SDS011;24367;51.640;9.566;2022-08-19T13:15:22;5.05;;;2.22;;
38609;SDS011;24367;51.640;9.566;2022-08-19T13:17:49;3.30;;;1.95;;
38609;SDS011;24367;51.640;9.566;2022-08-19T13:20:18;7.40;;;1.83;;
38609;SDS011;24367;51.640;9.566;2022-08-19T13:22:46;4.15;;;1.80;;
38609;SDS011;24367;51.640;9.566;2022-08-19T13:25:13;4.07;;;2.25;;
38609;SDS011;24367;51.640;9.566;2022-08-19T13:27:41;3.90;;;2.10;;
38609;SDS011;24367;51.640;9.566;2022-08-19T13:30:08;5.68;;;2.30;;
38609;SDS011;24367;51.640;9.566;2022-08-19T13:32:54;2.67;;;2.00;;
38609;SDS011;24367;51.640;9.566;2022-08-19T13:35:41;2.60;;;1.80;;
38609;SDS011;24367;51.640;9.566;2022-08-19T13:38:09;4.32;;;1.83;;
38609;SDS011;24367;51.640;9.566;2022-08-19T13:40:36;2.80;;;1.80;;
38609;SDS011;24367;51.640;9.566;2022-08-19T13:43:03;4.50;;;1.90;;
38609;SDS011;24367;51.640;9.566;2022-08-19T13:45:31;3.03;;;1.95;;
38609;SDS011;24367;51.640;9.566;2022-08-19T13:47:59;6.25;;;1.70;;
38609;SDS011;24367;51.640;9.566;2022-08-19T13:50:26;4.63;;;2.20;;
38609;SDS011;24367;51.640;9.566;2022-08-19T13:52:57;5.85;;;2.25;;
38609;SDS011;24367;51.640;9.566;2022-08-19T13:55:24;6.30;;;1.75;;
38609;SDS011;24367;51.640;9.566;2022-08-19T13:57:51;3.15;;;2.00;;
38609;SDS011;24367;51.640;9.566;2022-08-19T14:00:19;9.07;;;2.63;;
38609;SDS011;24367;51.640;9.566;2022-08-19T14:02:46;3.55;;;2.00;;
38609;SDS011;24367;51.640;9.566;2022-08-19T14:05:14;5.70;;;1.67;;
38609;SDS011;24367;51.640;9.566;2022-08-19T14:07:41;6.22;;;2.15;;
38609;SDS011;24367;51.640;9.566;2022-08-19T14:10:11;5.18;;;1.95;;
38609;SDS011;24367;51.640;9.566;2022-08-19T14:12:39;6.55;;;2.10;;
38609;SDS011;24367;51.640;9.566;2022-08-19T14:15:06;4.25;;;2.03;;
38609;SDS011;24367;51.640;9.566;2022-08-19T14:17:36;10.43;;;2.42;;
38609;SDS011;24367;51.640;9.566;2022-08-19T14:20:04;4.93;;;2.53;;
38609;SDS011;24367;51.640;9.566;2022-08-19T14:22:33;12.38;;;1.80;;
38609;SDS011;24367;51.640;9.566;2022-08-19T14:25:00;5.30;;;2.15;;
38609;SDS011;24367;51.640;9.566;2022-08-19T14:27:27;4.65;;;2.00;;
38609;SDS011;24367;51.640;9.566;2022-08-19T14:29:54;6.15;;;2.00;;
38609;SDS011;24367;51.640;9.566;2022-08-19T14:32:21;4.65;;;2.00;;
38609;SDS011;24367;51.640;9.566;2022-08-19T14:34:47;4.78;;;2.25;;
38609;SDS011;24367;51.640;9.566;2022-08-19T14:37:14;5.45;;;1.98;;
38609;SDS011;24367;51.640;9.566;2022-08-19T14:39:40;4.50;;;2.13;;
38609;SDS011;24367;51.640;9.566;2022-08-19T14:42:07;3.42;;;1.85;;
38609;SDS011;24367;51.640;9.566;2022-08-19T14:44:35;3.90;;;2.08;;
38609;SDS011;24367;51.640;9.566;2022-08-19T14:47:02;3.05;;;1.85;;
38609;SDS011;24367;51.640;9.566;2022-08-19T14:49:29;5.80;;;1.80;;
38609;SDS011;24367;51.640;9.566;2022-08-19T14:51:55;3.50;;;1.88;;
38609;SDS011;24367;51.640;9.566;2022-08-19T14:54:22;3.65;;;1.83;;
38609;SDS011;24367;51.640;9.566;2022-08-19T14:56:48;4.68;;;2.17;;